Qumarleb, China
Current Conditions -  °F | °C
As of 5:00 AM on Wednesday 22 Oct 2014 (Local Time) from ZLLL Reporting Station
Clear Clear  
Wind Chill: 33°   Ceiling: Unl
Heat Index: 39°   Visibility: 6mi
Dew Point: 27°   Wind: 9mph
Humidity: 61%   Direction: 330°NNW
Pressure: 30.3"   Gusts: NA
Location:  34.13°N, 95.78°E
Report Text: ZLLL 212100Z 33004MPS CAVOK 04/M03 Q1026 NOSIG
Loading
Personal Weather Stations






























Interactive Weather Map
Tropical Storm Tracking
New forecast layout! Learn more

10-Day Weather Forecast

Advertisements
Track Severe Weather on mobile